Time;durP1;ratioP1;P1;durP2;ratioP2;P2;SDS_P1;SDS_P2;PMS_P1;PMS_P2;Temp;Humidity;BMP_temperature;BMP_pressure;BME280_temperature;BME280_humidity;BME280_pressure;Samples;Min_cycle;Max_cycle;Signal;HPM_P1;HPM_P2
2022/10/09 00:00:38;;;;;;;24.23;7.20;;;;;;;41.23;34.92;101067.22;5095166;28;20447;-73
2022/10/09 00:03:04;;;;;;;14.80;6.17;;;;;;;41.67;34.28;101064.38;5094968;28;20937;-73
2022/10/09 00:05:30;;;;;;;17.57;7.93;;;;;;;41.44;34.20;101047.53;5094863;28;20417;-73
2022/10/09 00:07:56;;;;;;;13.90;6.87;;;;;;;41.59;34.13;101049.69;5094965;28;20855;-73
2022/10/09 00:10:22;;;;;;;14.20;6.97;;;;;;;41.61;34.13;101044.69;5091309;28;21001;-73
2022/10/09 00:12:48;;;;;;;23.43;9.07;;;;;;;41.49;34.38;101034.50;5091376;28;20456;-73
2022/10/09 00:15:14;;;;;;;25.00;7.23;;;;;;;41.51;34.42;101031.47;5091424;28;20455;-73
2022/10/09 00:17:40;;;;;;;14.97;7.53;;;;;;;41.71;34.35;101030.72;5091296;28;20856;-73
2022/10/09 00:20:07;;;;;;;18.53;7.97;;;;;;;41.56;34.36;101034.03;5091257;28;20428;-71
2022/10/09 00:22:33;;;;;;;20.93;8.20;;;;;;;41.42;34.37;101030.69;5092547;28;20922;-72
2022/10/09 00:24:59;;;;;;;17.23;8.70;;;;;;;41.59;33.97;101030.63;5091473;28;20424;-75
2022/10/09 00:27:25;;;;;;;25.03;7.40;;;;;;;41.56;34.44;101036.75;5091150;28;20424;-73
2022/10/09 00:29:51;;;;;;;11.87;9.17;;;;;;;41.56;34.85;101031.28;5083055;28;20459;-73
2022/10/09 00:32:18;;;;;;;12.10;6.37;;;;;;;41.68;34.20;101039.56;5079808;28;20457;-73
2022/10/09 00:34:44;;;;;;;21.43;6.97;;;;;;;41.78;34.19;101041.94;5087569;28;20933;-73
2022/10/09 00:37:10;;;;;;;22.30;7.60;;;;;;;41.71;34.19;101041.63;5072861;28;20413;-74
2022/10/09 00:39:36;;;;;;;20.80;7.90;;;;;;;41.33;34.72;101036.97;5071120;28;20456;-73
2022/10/09 00:42:03;;;;;;;17.53;7.13;;;;;;;41.45;34.53;101039.03;5069533;28;20474;-75
2022/10/09 00:44:47;;;;;;;16.30;7.00;;;;;;;41.37;34.26;101041.75;5071553;28;20465;-73
2022/10/09 00:47:27;;;;;;;21.30;6.97;;;;;;;41.47;33.96;101039.47;5070523;28;20416;-75
2022/10/09 00:49:58;;;;;;;15.37;6.80;;;;;;;41.75;33.97;101030.91;5087850;28;20425;-76
2022/10/09 00:52:25;;;;;;;11.40;7.33;;;;;;;41.39;34.55;101028.63;5070967;28;20522;-74
2022/10/09 00:54:53;;;;;;;27.47;7.70;;;;;;;41.55;34.20;101037.84;5087691;28;20946;-73
2022/10/09 00:57:19;;;;;;;18.33;8.57;;;;;;;41.72;34.16;101042.41;5070909;28;20421;-74
2022/10/09 00:59:45;;;;;;;25.17;7.10;;;;;;;41.87;33.92;101036.44;5070920;28;20803;-74
2022/10/09 01:02:11;;;;;;;19.17;7.20;;;;;;;41.77;33.67;101037.63;5072438;28;20831;-74
2022/10/09 01:04:38;;;;;;;14.67;7.57;;;;;;;41.32;34.33;101029.94;5070821;28;20418;-76
2022/10/09 01:07:28;;;;;;;17.20;6.10;;;;;;;41.71;34.09;101036.16;5070776;28;20437;-76
2022/10/09 01:10:01;;;;;;;26.07;7.57;;;;;;;41.69;34.05;101033.00;5073433;28;20480;-74
2022/10/09 01:12:33;;;;;;;24.80;7.20;;;;;;;41.82;33.98;101028.47;5073933;28;20529;-74
2022/10/09 01:15:11;;;;;;;17.37;6.40;;;;;;;41.78;33.95;101020.13;5074100;28;20508;-74
2022/10/09 01:17:57;;;;;;;10.70;7.03;;;;;;;41.64;34.32;101016.03;5074034;28;20508;-74
2022/10/09 01:20:53;;;;;;;22.33;7.93;;;;;;;41.37;34.80;101003.66;5073870;28;20420;-74
2022/10/09 01:23:37;;;;;;;14.40;7.93;;;;;;;41.66;34.51;101011.84;5065351;28;20413;-73
2022/10/09 01:26:15;;;;;;;26.80;9.23;;;;;;;41.47;34.16;101006.81;5073842;28;20429;-74
2022/10/09 01:28:53;;;;;;;22.37;7.30;;;;;;;41.57;34.43;100997.47;5092318;28;20408;-73
2022/10/09 01:31:22;;;;;;;15.50;10.47;;;;;;;41.47;34.61;100997.84;5075906;28;20986;-74
2022/10/09 01:33:49;;;;;;;17.47;8.07;;;;;;;41.45;34.50;100994.66;5077356;28;20441;-73
2022/10/09 01:36:16;;;;;;;14.33;7.90;;;;;;;41.47;34.41;100992.41;5077578;28;20554;-74
2022/10/09 01:38:44;;;;;;;10.37;6.70;;;;;;;41.29;34.38;100992.44;5077340;28;20507;-74
2022/10/09 01:41:10;;;;;;;19.50;6.90;;;;;;;41.34;34.50;100994.22;5077347;28;20927;-76
2022/10/09 01:43:36;;;;;;;14.93;6.70;;;;;;;41.36;33.91;100989.25;5077315;28;20485;-75
2022/10/09 01:46:25;;;;;;;18.77;5.90;;;;;;;41.45;34.24;100984.56;5077212;28;20425;-76
2022/10/09 01:49:22;;;;;;;12.30;6.33;;;;;;;41.30;34.46;100991.31;5077172;28;20852;-74
2022/10/09 01:52:07;;;;;;;8.73;5.33;;;;;;;41.20;34.41;100985.44;5077006;28;20548;-74
2022/10/09 01:54:48;;;;;;;17.40;8.77;;;;;;;41.21;34.33;100987.84;5077268;28;20444;-73
2022/10/09 01:57:22;;;;;;;19.30;9.53;;;;;;;41.48;34.09;100986.63;5077289;28;20806;-74
2022/10/09 01:59:50;;;;;;;17.70;10.20;;;;;;;41.46;34.06;100983.44;5077063;28;20478;-73
2022/10/09 02:02:17;;;;;;;16.83;7.07;;;;;;;41.47;34.12;100986.94;5077185;28;20499;-74
2022/10/09 02:04:44;;;;;;;12.60;7.23;;;;;;;41.42;34.57;100984.41;5077030;28;20471;-74
2022/10/09 02:07:10;;;;;;;20.97;9.10;;;;;;;41.57;34.08;100989.31;5076866;28;20413;-74
2022/10/09 02:09:38;;;;;;;18.10;7.17;;;;;;;41.72;34.16;100987.94;5076872;28;20427;-74
2022/10/09 02:12:09;;;;;;;25.97;11.70;;;;;;;41.62;34.35;100997.31;5095291;28;20815;-74
2022/10/09 02:14:35;;;;;;;18.47;9.00;;;;;;;41.52;34.05;100984.06;5076620;28;20832;-74
2022/10/09 02:17:25;;;;;;;30.87;8.47;;;;;;;41.61;34.33;100982.06;5076794;28;20467;-74
2022/10/09 02:20:15;;;;;;;22.23;9.13;;;;;;;41.71;33.77;100987.13;5076613;28;20913;-74
2022/10/09 02:22:41;;;;;;;20.40;8.13;;;;;;;41.72;33.21;100988.72;5076266;28;20424;-74
2022/10/09 02:25:08;;;;;;;18.83;9.17;;;;;;;41.50;33.88;100973.50;5076632;28;20416;-74
2022/10/09 02:27:35;;;;;;;15.63;7.10;;;;;;;41.53;34.17;100978.28;5076497;28;20427;-74
2022/10/09 02:30:01;;;;;;;19.63;6.97;;;;;;;41.56;34.36;100971.38;5076611;28;20409;-74
2022/10/09 02:32:28;;;;;;;12.10;7.03;;;;;;;41.34;34.04;100961.56;5076421;28;20544;-74
2022/10/09 02:34:54;;;;;;;24.53;10.40;;;;;;;41.11;34.73;100965.63;5076424;28;20858;-74
2022/10/09 02:37:20;;;;;;;20.30;7.40;;;;;;;41.08;35.04;100967.88;5076657;28;20456;-74
2022/10/09 02:39:46;;;;;;;12.70;6.67;;;;;;;41.21;34.71;100971.50;5076822;28;20496;-74
2022/10/09 02:42:12;;;;;;;11.57;6.30;;;;;;;41.30;34.63;100974.19;5075976;28;20797;-74
2022/10/09 02:44:38;;;;;;;23.63;8.23;;;;;;;41.40;34.40;100978.50;5076204;28;20843;-74
2022/10/09 02:47:04;;;;;;;16.10;6.70;;;;;;;41.32;34.44;100977.41;5076074;28;20405;-74
2022/10/09 02:49:30;;;;;;;14.07;6.80;;;;;;;41.32;34.15;100980.94;5076161;28;20417;-74
2022/10/09 02:51:56;;;;;;;14.80;6.73;;;;;;;41.20;34.58;100983.53;5076678;28;20835;-74
2022/10/09 02:54:22;;;;;;;11.53;6.40;;;;;;;41.55;34.03;100977.94;5076085;28;20421;-76
2022/10/09 02:56:48;;;;;;;13.10;6.60;;;;;;;41.03;34.53;100976.22;5076169;28;20426;-75
2022/10/09 02:59:14;;;;;;;12.20;5.60;;;;;;;41.04;34.81;100968.84;5075848;28;20417;-75
2022/10/09 03:01:40;;;;;;;15.60;6.83;;;;;;;41.22;34.60;100970.38;5076163;28;20448;-76
2022/10/09 03:04:06;;;;;;;17.37;6.87;;;;;;;41.02;34.77;100971.91;5075843;28;20423;-74
2022/10/09 03:06:33;;;;;;;15.03;6.27;;;;;;;41.36;34.15;100972.09;5094304;28;20787;-74
2022/10/09 03:08:59;;;;;;;16.07;6.47;;;;;;;41.32;34.24;100974.66;5075581;28;20441;-74
2022/10/09 03:11:25;;;;;;;15.20;6.90;;;;;;;41.42;34.04;100978.97;5071870;28;20554;-74
2022/10/09 03:13:53;;;;;;;12.53;6.13;;;;;;;41.37;34.28;100979.94;5089271;28;20433;-74
2022/10/09 03:16:21;;;;;;;13.27;5.53;;;;;;;41.28;34.44;100979.16;5072174;28;20452;-74
2022/10/09 03:18:48;;;;;;;13.07;5.20;;;;;;;41.43;34.20;100977.84;5072239;28;20472;-76
2022/10/09 03:21:17;;;;;;;16.57;7.20;;;;;;;41.32;34.66;100980.13;5072121;28;20909;-75
2022/10/09 03:23:44;;;;;;;12.63;6.20;;;;;;;41.63;34.00;100979.81;5072012;28;20452;-74
2022/10/09 03:26:13;;;;;;;13.90;7.23;;;;;;;41.42;34.34;100981.69;5072095;28;20422;-74
2022/10/09 03:28:42;;;;;;;16.20;5.60;;;;;;;41.26;34.46;100984.94;5071966;28;20456;-74
2022/10/09 03:31:08;;;;;;;13.37;5.70;;;;;;;41.06;34.53;100982.91;5071892;28;20425;-74
2022/10/09 03:33:35;;;;;;;13.50;5.57;;;;;;;41.20;34.44;100982.72;5071884;28;20841;-74
2022/10/09 03:36:02;;;;;;;21.70;7.10;;;;;;;41.30;34.46;100987.78;5078792;28;20409;-74
2022/10/09 03:38:28;;;;;;;11.53;6.03;;;;;;;41.32;34.33;100986.38;5091973;28;20445;-74
2022/10/09 03:40:54;;;;;;;19.97;8.23;;;;;;;41.25;34.39;100985.25;5091940;28;20429;-74
2022/10/09 03:43:20;;;;;;;15.17;6.30;;;;;;;41.45;34.23;100987.28;5092074;28;20425;-74
2022/10/09 03:45:46;;;;;;;19.93;7.30;;;;;;;41.47;34.16;100987.75;5092245;28;20426;-74
2022/10/09 03:48:13;;;;;;;15.40;8.10;;;;;;;41.24;34.67;100976.28;5091809;28;20461;-74
2022/10/09 03:50:40;;;;;;;16.00;6.63;;;;;;;41.34;34.60;100975.97;5092101;28;20445;-73
2022/10/09 03:53:08;;;;;;;16.10;6.40;;;;;;;41.42;34.52;100982.47;5091062;28;20468;-74
2022/10/09 03:55:35;;;;;;;22.30;8.40;;;;;;;41.04;35.09;100977.00;5091675;28;20519;-74
2022/10/09 03:58:01;;;;;;;21.20;8.20;;;;;;;41.12;34.81;100973.44;5092063;28;20471;-74
2022/10/09 04:00:27;;;;;;;20.67;5.83;;;;;;;41.22;34.63;100981.28;5091588;28;20530;-74
2022/10/09 04:02:53;;;;;;;14.13;6.00;;;;;;;41.10;34.73;100996.69;5091671;28;20406;-74
2022/10/09 04:05:20;;;;;;;16.00;6.80;;;;;;;40.83;35.04;101001.38;5091413;28;20413;-74
2022/10/09 04:07:46;;;;;;;13.77;6.47;;;;;;;41.01;34.63;101007.59;5091918;28;20949;-74
2022/10/09 04:10:12;;;;;;;11.40;5.77;;;;;;;41.13;34.61;101015.06;5094295;28;20475;-74
2022/10/09 04:12:39;;;;;;;14.50;5.80;;;;;;;41.40;34.41;101016.63;5095187;28;20459;-74
2022/10/09 04:15:06;;;;;;;10.67;7.00;;;;;;;41.57;34.38;101019.28;5113616;28;20479;-74
2022/10/09 04:17:32;;;;;;;14.33;6.43;;;;;;;41.33;34.48;101015.19;5094742;28;20396;-74
2022/10/09 04:19:58;;;;;;;20.53;7.30;;;;;;;41.25;34.56;101007.84;5095193;28;20419;-74
2022/10/09 04:22:25;;;;;;;18.00;6.47;;;;;;;41.37;34.34;101003.66;5094812;28;20396;-74
2022/10/09 04:24:51;;;;;;;13.23;6.47;;;;;;;40.96;35.09;101011.28;5094699;28;20405;-74
2022/10/09 04:27:17;;;;;;;14.03;6.50;;;;;;;41.38;34.33;101014.22;5113418;28;20465;-76
2022/10/09 04:29:43;;;;;;;16.07;5.80;;;;;;;41.13;34.85;101020.50;5094679;28;20408;-75
2022/10/09 04:32:09;;;;;;;11.27;5.60;;;;;;;41.19;35.05;101014.59;5094692;28;20448;-74
2022/10/09 04:34:35;;;;;;;10.20;6.70;;;;;;;41.46;34.69;101018.84;5094951;28;20426;-74
2022/10/09 04:37:01;;;;;;;10.33;5.90;;;;;;;41.41;34.97;101013.56;5094628;28;20507;-74
2022/10/09 04:39:27;;;;;;;17.33;6.30;;;;;;;41.60;34.36;101019.41;5113288;28;20483;-74
2022/10/09 04:41:53;;;;;;;16.90;8.70;;;;;;;41.69;34.55;101019.38;5094666;28;20446;-74
2022/10/09 04:44:19;;;;;;;10.13;6.60;;;;;;;41.64;34.61;101022.28;5113220;28;20405;-74
2022/10/09 04:46:45;;;;;;;11.97;7.00;;;;;;;41.29;34.80;101019.66;5094695;28;20440;-74
2022/10/09 04:49:12;;;;;;;14.30;7.70;;;;;;;41.03;34.84;101030.63;5094478;28;20419;-73
2022/10/09 04:51:38;;;;;;;13.10;7.47;;;;;;;41.25;34.57;101031.53;5113066;28;20806;-74
2022/10/09 04:54:04;;;;;;;16.00;6.03;;;;;;;41.24;35.09;101027.22;5094780;28;20439;-73
2022/10/09 04:56:30;;;;;;;14.60;7.00;;;;;;;41.18;34.92;101029.31;5094649;28;20415;-73
2022/10/09 04:58:56;;;;;;;11.93;7.00;;;;;;;41.22;34.98;101027.53;5113163;28;20396;-74
2022/10/09 05:01:25;;;;;;;16.90;7.70;;;;;;;41.36;34.53;101029.28;5094681;28;20957;-74
2022/10/09 05:03:52;;;;;;;15.87;7.87;;;;;;;41.52;34.04;101033.06;5094498;28;20424;-75
2022/10/09 05:06:19;;;;;;;10.87;6.87;;;;;;;41.13;35.20;101036.84;5098530;28;20431;-75
2022/10/09 05:08:45;;;;;;;13.17;7.27;;;;;;;41.27;34.62;101027.38;5098208;28;20795;-75
2022/10/09 05:11:14;;;;;;;11.43;6.47;;;;;;;41.56;34.09;101040.25;5098093;28;20467;-74
2022/10/09 05:13:45;;;;;;;15.93;8.70;;;;;;;41.23;34.97;101041.94;5098074;28;20573;-73
2022/10/09 05:16:17;;;;;;;30.77;27.03;;;;;;;40.90;35.48;101050.66;5097720;28;20459;-74
2022/10/09 05:18:52;;;;;;;23.53;13.97;;;;;;;41.07;34.82;101052.56;5091944;28;20417;-73
2022/10/09 05:21:18;;;;;;;62.50;41.83;;;;;;;41.30;34.80;101062.09;5076028;28;20424;-76
2022/10/09 05:23:45;;;;;;;54.77;34.17;;;;;;;41.41;34.64;101062.56;5093852;28;20416;-74
2022/10/09 05:26:16;;;;;;;18.73;8.60;;;;;;;41.30;34.64;101066.72;5077448;28;20454;-73
2022/10/09 05:28:42;;;;;;;15.63;7.50;;;;;;;41.45;34.74;101060.81;5076558;28;20440;-73
2022/10/09 05:31:09;;;;;;;30.60;19.63;;;;;;;41.49;34.39;101064.44;5077586;28;20417;-73
2022/10/09 05:33:35;;;;;;;21.00;12.03;;;;;;;41.49;34.23;101078.06;5077027;28;20437;-74
2022/10/09 05:36:04;;;;;;;34.37;14.07;;;;;;;41.55;34.52;101092.31;5075579;28;20569;-74
2022/10/09 05:38:33;;;;;;;23.20;12.53;;;;;;;41.70;33.75;101097.22;5094182;28;20396;-73
2022/10/09 05:41:03;;;;;;;19.00;9.20;;;;;;;41.74;33.71;101089.19;5075791;28;20440;-73
2022/10/09 05:43:32;;;;;;;25.07;13.23;;;;;;;41.68;34.00;101109.56;5075361;28;20424;-74
2022/10/09 05:46:29;;;;;;;13.83;7.53;;;;;;;41.64;33.62;101123.03;5093910;28;20562;-74
2022/10/09 05:49:00;;;;;;;15.07;10.37;;;;;;;41.68;33.84;101134.91;5067634;28;20417;-75
2022/10/09 05:51:32;;;;;;;22.97;9.70;;;;;;;41.77;33.58;101138.41;5094104;28;20885;-75
2022/10/09 05:53:58;;;;;;;20.60;12.03;;;;;;;41.80;33.51;101145.91;5077418;28;20523;-75
2022/10/09 05:56:27;;;;;;;19.63;11.63;;;;;;;41.85;33.78;101153.09;5077009;28;20486;-75
2022/10/09 05:58:54;;;;;;;36.97;11.83;;;;;;;41.89;33.66;101162.25;5077269;28;20405;-75
2022/10/09 06:01:21;;;;;;;32.67;19.10;;;;;;;41.89;33.52;101177.78;5077029;28;20800;-73
2022/10/09 06:03:53;;;;;;;46.73;23.13;;;;;;;41.81;33.79;101207.47;5077075;28;20462;-73
2022/10/09 06:06:20;;;;;;;28.20;13.13;;;;;;;40.87;35.26;101262.66;5076934;28;20409;-73
2022/10/09 06:08:47;;;;;;;40.60;15.43;;;;;;;39.92;35.80;101290.22;5096274;28;20416;-73
2022/10/09 06:11:27;;;;;;;45.00;12.13;;;;;;;38.60;36.49;101281.06;5096515;28;20452;-73
2022/10/09 06:13:54;;;;;;;18.27;8.47;;;;;;;38.24;37.38;101304.50;5086294;28;20505;-73
2022/10/09 06:16:27;;;;;;;11.87;4.93;;;;;;;37.70;37.50;101300.50;5085114;28;20408;-74
2022/10/09 06:18:54;;;;;;;11.00;5.20;;;;;;;37.32;37.92;101290.44;5104505;28;20401;-74
2022/10/09 06:21:21;;;;;;;8.33;4.40;;;;;;;36.67;38.56;101292.03;5085791;28;20466;-74
2022/10/09 06:23:52;;;;;;;7.10;3.30;;;;;;;37.11;37.71;101291.78;5085104;28;20478;-73
2022/10/09 06:26:21;;;;;;;8.70;3.07;;;;;;;37.98;36.14;101285.16;5085959;28;20419;-76
2022/10/09 06:28:47;;;;;;;11.97;3.07;;;;;;;38.16;35.97;101293.22;5112063;28;20855;-74
2022/10/09 06:31:17;;;;;;;10.13;3.80;;;;;;;38.25;35.83;101290.66;5096649;28;21055;-73
2022/10/09 06:33:45;;;;;;;13.10;4.50;;;;;;;37.91;36.89;101294.47;5115428;28;20384;-73
2022/10/09 06:36:14;;;;;;;10.90;5.43;;;;;;;37.28;37.82;101281.28;5115442;28;20392;-73
2022/10/09 06:38:41;;;;;;;9.40;5.17;;;;;;;37.69;37.35;101278.03;5096636;28;20826;-73
2022/10/09 06:41:13;;;;;;;12.00;5.67;;;;;;;37.73;37.60;101276.31;5096614;28;20420;-74
2022/10/09 06:43:39;;;;;;;13.47;6.53;;;;;;;38.30;37.10;101273.50;5115213;28;20396;-73
2022/10/09 06:46:10;;;;;;;12.40;6.07;;;;;;;38.80;36.27;101265.56;5096399;28;20412;-73
2022/10/09 06:48:37;;;;;;;12.83;5.77;;;;;;;38.75;35.94;101269.16;5096703;28;20416;-73
2022/10/09 06:51:13;;;;;;;8.20;4.30;;;;;;;39.11;35.41;101271.94;5096183;28;20768;-73
2022/10/09 06:53:42;;;;;;;8.53;4.27;;;;;;;38.98;35.32;101278.19;5096485;28;20446;-73
2022/10/09 06:56:09;;;;;;;8.30;4.20;;;;;;;39.34;34.63;101272.78;5096412;28;20535;-74
2022/10/09 06:58:36;;;;;;;11.37;5.57;;;;;;;39.37;34.83;101279.53;5096286;28;20925;-74
2022/10/09 07:01:12;;;;;;;12.17;5.50;;;;;;;39.51;34.55;101277.56;5096338;28;20970;-75
2022/10/09 07:03:41;;;;;;;20.67;7.37;;;;;;;39.61;34.52;101288.22;5096171;28;20407;-74
2022/10/09 07:06:16;;;;;;;15.50;8.10;;;;;;;39.47;34.46;101282.00;5096046;28;20418;-73
2022/10/09 07:08:44;;;;;;;13.13;7.60;;;;;;;39.41;34.66;101284.06;5096371;28;20419;-73
2022/10/09 07:11:20;;;;;;;15.10;7.23;;;;;;;39.64;34.41;101293.03;5095782;28;20575;-73
2022/10/09 07:13:48;;;;;;;12.37;6.40;;;;;;;39.68;34.18;101274.22;5095906;28;20921;-73
2022/10/09 07:16:19;;;;;;;18.50;7.90;;;;;;;39.78;34.25;101281.31;5114565;28;20402;-73
2022/10/09 07:18:45;;;;;;;11.13;6.00;;;;;;;39.84;33.93;101280.06;5095879;28;20408;-74
2022/10/09 07:21:11;;;;;;;10.90;5.80;;;;;;;39.69;34.09;101278.53;5095833;28;20416;-74
2022/10/09 07:23:37;;;;;;;20.13;7.23;;;;;;;39.94;33.58;101288.78;5088010;28;20428;-73
2022/10/09 07:26:24;;;;;;;8.53;4.80;;;;;;;39.99;33.98;101285.13;5095698;28;20448;-74
2022/10/09 07:28:52;;;;;;;20.73;5.40;;;;;;;40.11;33.26;101290.03;5094542;28;20419;-75
2022/10/09 07:31:20;;;;;;;7.63;4.43;;;;;;;40.13;33.37;101291.31;5094401;28;20459;-73
2022/10/09 07:33:48;;;;;;;13.80;5.20;;;;;;;40.03;33.54;101295.09;5095531;28;20415;-74
2022/10/09 07:36:14;;;;;;;13.97;5.47;;;;;;;39.41;34.10;101300.34;5095524;28;20415;-73
2022/10/09 07:38:40;;;;;;;12.13;5.70;;;;;;;39.79;33.65;101294.59;5095384;28;20411;-73
2022/10/09 07:41:09;;;;;;;12.10;6.20;;;;;;;39.99;33.88;101301.44;5095355;28;20416;-74
2022/10/09 07:43:37;;;;;;;13.23;5.60;;;;;;;39.98;34.02;101308.78;5085740;28;20455;-74
2022/10/09 07:46:05;;;;;;;13.80;5.43;;;;;;;40.06;33.47;101309.97;5103395;28;20415;-73
2022/10/09 07:48:32;;;;;;;10.30;5.10;;;;;;;40.24;33.34;101305.44;5084303;28;20409;-74
2022/10/09 07:51:10;;;;;;;9.53;5.13;;;;;;;40.22;33.35;101313.13;5081037;28;20523;-74
2022/10/09 07:53:36;;;;;;;9.80;5.73;;;;;;;40.22;33.22;101313.91;5075223;28;20460;-74
2022/10/09 07:56:03;;;;;;;16.30;7.13;;;;;;;40.31;33.22;101332.19;5074818;28;20517;-74
2022/10/09 07:58:29;;;;;;;9.43;6.30;;;;;;;40.29;33.26;101329.78;5074764;28;20792;-74
2022/10/09 08:00:55;;;;;;;11.10;6.50;;;;;;;40.34;33.09;101316.06;5059909;28;20556;-74
2022/10/09 08:03:21;;;;;;;17.63;10.40;;;;;;;40.35;33.67;101325.81;5095044;28;20416;-74
2022/10/09 08:05:55;;;;;;;13.70;8.67;;;;;;;40.37;33.19;101320.84;5095007;28;20420;-74
2022/10/09 08:08:21;;;;;;;12.97;9.53;;;;;;;40.38;33.45;101322.47;5094868;28;20860;-74
2022/10/09 08:10:47;;;;;;;16.50;9.00;;;;;;;40.34;33.72;101310.63;5113016;28;20501;-74
2022/10/09 08:13:13;;;;;;;11.63;8.70;;;;;;;40.15;33.48;101319.00;5091544;28;20485;-72
2022/10/09 08:15:41;;;;;;;22.63;10.23;;;;;;;40.35;33.74;101317.66;5083076;28;20435;-72
2022/10/09 08:18:11;;;;;;;16.87;10.43;;;;;;;40.30;33.78;101312.34;5101705;28;20959;-71
2022/10/09 08:20:38;;;;;;;15.80;7.63;;;;;;;40.27;33.43;101316.50;5083619;28;20469;-71
2022/10/09 08:23:06;;;;;;;12.40;8.30;;;;;;;40.39;33.43;101317.81;5084067;28;20518;-71
2022/10/09 08:25:36;;;;;;;13.77;7.47;;;;;;;40.23;33.68;101331.81;5084822;28;20943;-71
2022/10/09 08:28:04;;;;;;;11.50;7.00;;;;;;;40.41;33.51;101332.72;5101357;28;20413;-71
2022/10/09 08:30:31;;;;;;;10.80;7.17;;;;;;;40.26;33.40;101338.53;5091103;28;20435;-71
2022/10/09 08:32:57;;;;;;;13.13;8.17;;;;;;;40.38;33.53;101338.78;5103644;28;20443;-71
2022/10/09 08:35:29;;;;;;;20.27;8.13;;;;;;;40.40;33.41;101352.06;5083897;28;20790;-71
2022/10/09 08:37:55;;;;;;;16.90;7.17;;;;;;;40.42;33.11;101358.00;5068613;28;20538;-71
2022/10/09 08:40:33;;;;;;;18.47;8.47;;;;;;;40.38;33.46;101363.22;5095024;28;20922;-72
2022/10/09 08:43:05;;;;;;;13.80;8.93;;;;;;;40.23;33.63;101364.44;5081354;28;20416;-72
2022/10/09 08:45:38;;;;;;;20.97;10.97;;;;;;;40.32;33.67;101374.56;5098427;28;20447;-73
2022/10/09 08:48:10;;;;;;;19.13;10.03;;;;;;;40.44;33.08;101385.66;5089528;28;20447;-71
2022/10/09 08:50:44;;;;;;;16.93;12.17;;;;;;;40.41;33.19;101370.78;5087621;28;20423;-72
2022/10/09 08:53:27;;;;;;;21.67;12.67;;;;;;;40.37;33.36;101372.50;5086709;28;20490;-77
2022/10/09 08:56:00;;;;;;;16.30;12.87;;;;;;;40.41;32.93;101375.41;5090018;28;20408;-72
2022/10/09 08:58:32;;;;;;;20.93;9.80;;;;;;;40.39;33.56;101380.34;5097086;28;20526;-72
2022/10/09 09:01:14;;;;;;;14.33;10.20;;;;;;;40.39;33.58;101381.19;5097961;28;20428;-72
2022/10/09 09:04:17;;;;;;;19.40;12.07;;;;;;;40.40;33.20;101390.13;5111216;28;20494;-72
2022/10/09 09:07:15;;;;;;;20.87;12.90;;;;;;;40.13;33.70;101388.34;5106523;28;20405;-71
2022/10/09 09:09:53;;;;;;;18.40;13.90;;;;;;;40.21;33.58;101377.53;5087623;28;20427;-71
2022/10/09 09:12:25;;;;;;;23.60;16.07;;;;;;;39.97;34.23;101371.59;5085815;28;20462;-69
2022/10/09 09:15:17;;;;;;;23.77;15.63;;;;;;;40.12;34.13;101365.81;5093112;28;20996;-70
2022/10/09 09:17:57;;;;;;;32.07;17.20;;;;;;;40.26;34.21;101365.72;5102436;28;20447;-70
2022/10/09 09:20:45;;;;;;;29.93;17.93;;;;;;;40.31;34.10;101372.94;5085678;28;20576;-73
2022/10/09 09:23:15;;;;;;;27.53;15.97;;;;;;;40.36;33.71;101361.97;5096100;28;20502;-72
2022/10/09 09:25:44;;;;;;;26.00;15.87;;;;;;;40.35;33.70;101358.44;5079075;28;20452;-71
2022/10/09 09:28:30;;;;;;;23.37;18.23;;;;;;;40.33;33.75;101357.13;5094688;28;20938;-72
2022/10/09 09:31:06;;;;;;;24.40;15.77;;;;;;;40.31;33.82;101353.94;5077534;28;20425;-72
2022/10/09 09:33:41;;;;;;;23.03;16.50;;;;;;;40.38;34.01;101349.66;5077506;28;20529;-72
2022/10/09 09:36:13;;;;;;;24.40;16.70;;;;;;;40.46;34.01;101340.75;5103566;28;20403;-72
2022/10/09 09:38:39;;;;;;;27.10;17.20;;;;;;;40.42;33.75;101336.25;5087551;28;20473;-72
2022/10/09 09:41:05;;;;;;;27.60;14.97;;;;;;;40.48;33.88;101332.31;5085920;28;20475;-71
2022/10/09 09:43:31;;;;;;;27.67;15.50;;;;;;;40.47;34.04;101330.66;5097692;28;20988;-72
2022/10/09 09:45:59;;;;;;;19.50;17.10;;;;;;;40.53;33.76;101326.72;5097661;28;20408;-71
2022/10/09 09:48:35;;;;;;;33.93;16.50;;;;;;;40.54;33.58;101318.25;5097518;28;20928;-71
2022/10/09 09:51:13;;;;;;;37.80;18.53;;;;;;;40.58;33.58;101318.44;5115202;28;20388;-71
2022/10/09 09:53:47;;;;;;;26.77;14.73;;;;;;;40.62;33.56;101307.72;5095514;28;20477;-71
2022/10/09 09:56:13;;;;;;;17.10;11.50;;;;;;;40.63;33.37;101306.59;5085453;28;20459;-70
2022/10/09 09:58:43;;;;;;;20.10;12.67;;;;;;;40.64;33.10;101303.59;5086321;28;20428;-70
2022/10/09 10:01:22;;;;;;;20.80;10.50;;;;;;;40.52;33.50;101311.53;5086921;28;20396;-70
2022/10/09 10:03:49;;;;;;;17.80;9.00;;;;;;;40.60;33.30;101302.59;5085856;28;20503;-71
2022/10/09 10:06:42;;;;;;;22.73;11.40;;;;;;;40.68;32.94;101306.47;5066617;28;20938;-70
2022/10/09 10:09:18;;;;;;;22.07;10.20;;;;;;;40.73;32.77;101309.03;5107962;28;20404;-70
2022/10/09 10:11:51;;;;;;;24.50;11.10;;;;;;;40.71;33.40;101303.94;5088036;28;20521;-70
2022/10/09 10:14:17;;;;;;;17.30;9.77;;;;;;;40.75;32.86;101309.53;5104064;28;20415;-70
2022/10/09 10:16:48;;;;;;;14.30;8.50;;;;;;;40.79;33.07;101294.19;5099586;28;20453;-71
2022/10/09 10:19:24;;;;;;;16.67;10.60;;;;;;;40.73;32.92;101307.13;5080711;28;20473;-71
2022/10/09 10:22:03;;;;;;;16.93;11.03;;;;;;;40.75;32.57;101285.03;5076503;28;20420;-72
2022/10/09 10:24:41;;;;;;;22.53;9.73;;;;;;;40.75;32.80;101285.03;5095540;28;20926;-72
2022/10/09 10:27:26;;;;;;;20.70;11.27;;;;;;;40.72;33.25;101294.66;5096702;28;20415;-71
2022/10/09 10:29:58;;;;;;;21.00;10.97;;;;;;;40.75;33.35;101295.91;5096102;28;20415;-72
2022/10/09 10:32:53;;;;;;;26.90;13.87;;;;;;;40.75;32.84;101288.56;5095040;28;20564;-71
2022/10/09 10:35:23;;;;;;;20.17;10.50;;;;;;;40.74;32.66;101281.53;5076450;28;20452;-72
2022/10/09 10:38:11;;;;;;;23.63;9.53;;;;;;;40.76;32.77;101287.47;5084741;28;20875;-72
2022/10/09 10:40:45;;;;;;;17.77;12.03;;;;;;;40.75;32.40;101271.44;5082190;28;20439;-71
2022/10/09 10:43:41;;;;;;;32.63;11.63;;;;;;;40.78;32.72;101284.41;5093093;28;20471;-71
2022/10/09 10:46:31;;;;;;;15.33;10.87;;;;;;;40.74;33.14;101272.56;5100077;28;20416;-72
2022/10/09 10:49:00;;;;;;;24.57;13.60;;;;;;;40.57;32.84;101273.31;5086088;28;20925;-72
2022/10/09 10:52:02;;;;;;;17.03;11.50;;;;;;;40.52;33.35;101266.13;5102257;28;20835;-72
2022/10/09 10:55:15;;;;;;;19.30;12.00;;;;;;;40.66;33.25;101259.75;5111614;28;20411;-72
2022/10/09 10:57:41;;;;;;;20.03;12.50;;;;;;;40.55;33.36;101262.75;5037064;28;20926;-72
2022/10/09 11:00:10;;;;;;;25.83;13.40;;;;;;;40.46;33.38;101263.81;5083999;28;20413;-72
2022/10/09 11:03:04;;;;;;;19.00;12.27;;;;;;;40.53;33.79;101258.75;5103971;28;20456;-72
2022/10/09 11:05:39;;;;;;;16.03;10.80;;;;;;;40.54;33.45;101255.72;5081488;28;20412;-72
2022/10/09 11:08:30;;;;;;;18.80;12.90;;;;;;;40.00;34.44;101246.78;5086335;28;20430;-72
2022/10/09 11:11:26;;;;;;;23.90;13.57;;;;;;;40.10;34.76;101237.59;5081633;28;20488;-72
2022/10/09 11:14:05;;;;;;;23.03;13.67;;;;;;;39.99;34.95;101238.94;5083648;28;20523;-73
2022/10/09 11:17:05;;;;;;;22.63;12.17;;;;;;;39.86;34.83;101228.97;5089706;28;20808;-72
2022/10/09 11:19:46;;;;;;;18.63;11.80;;;;;;;40.09;35.06;101221.63;5059619;28;20425;-72
2022/10/09 11:22:12;;;;;;;18.10;11.73;;;;;;;40.08;34.71;101218.06;5094088;28;20389;-72
2022/10/09 11:24:52;;;;;;;20.70;11.43;;;;;;;40.44;34.20;101207.03;5093887;28;20517;-72
2022/10/09 11:27:48;;;;;;;23.33;13.90;;;;;;;40.18;34.55;101203.41;5104404;28;20404;-72
2022/10/09 11:30:16;;;;;;;30.80;16.40;;;;;;;40.49;34.54;101178.94;5089348;28;20478;-72
2022/10/09 11:33:02;;;;;;;26.93;14.83;;;;;;;40.39;34.26;101187.34;5092033;28;20993;-72